Time;durP1;ratioP1;P1;durP2;ratioP2;P2;SDS_P1;SDS_P2;PMS_P1;PMS_P2;Temp;Humidity;BMP_temperature;BMP_pressure;BME280_temperature;BME280_humidity;BME280_pressure;Samples;Min_cycle;Max_cycle;Signal;HPM_P1;HPM_P2
2022/08/26 00:02:22;;;;;;;0.00;0.00;;;;;;;19.23;100.00;101509.88;10441067;28;20048;-73
2022/08/26 00:07:22;;;;;;;0.10;0.10;;;;;;;19.21;100.00;101503.84;10434302;28;20025;-73
2022/08/26 00:12:23;;;;;;;0.10;0.10;;;;;;;19.17;100.00;101505.28;10443175;28;20025;-74
2022/08/26 00:17:23;;;;;;;0.10;0.10;;;;;;;19.12;100.00;101505.03;10451501;28;20029;-73
2022/08/26 00:22:24;;;;;;;0.10;0.10;;;;;;;19.05;100.00;101506.84;10431171;28;20439;-73
2022/08/26 00:27:24;;;;;;;0.00;0.00;;;;;;;18.99;100.00;101505.81;10419905;28;20037;-73
2022/08/26 00:32:25;;;;;;;0.10;0.10;;;;;;;18.94;100.00;101502.88;10428391;28;20025;-73
2022/08/26 00:37:26;;;;;;;0.10;0.10;;;;;;;18.92;100.00;101513.00;10443434;28;20342;-73
2022/08/26 00:42:26;;;;;;;0.10;0.10;;;;;;;18.89;100.00;101516.13;10431342;28;20021;-73
2022/08/26 00:47:36;;;;;;;0.00;0.00;;;;;;;18.86;100.00;101503.00;10437165;28;20025;-74
2022/08/26 00:52:38;;;;;;;0.00;0.00;;;;;;;18.83;100.00;101495.31;10440921;28;20472;-73
2022/08/26 00:57:38;;;;;;;0.10;0.10;;;;;;;18.79;100.00;101494.03;10427532;28;20021;-73
2022/08/26 01:02:40;;;;;;;0.10;0.10;;;;;;;18.76;100.00;101497.97;10433252;28;20412;-73
2022/08/26 01:07:40;;;;;;;0.00;0.00;;;;;;;18.71;100.00;101492.28;10426415;28;20048;-73
2022/08/26 01:12:46;;;;;;;0.00;0.00;;;;;;;18.65;100.00;101492.25;10428953;28;20023;-73
2022/08/26 01:17:48;;;;;;;0.10;0.10;;;;;;;18.59;100.00;101484.91;10431342;28;20013;-73
2022/08/26 01:22:54;;;;;;;0.10;0.10;;;;;;;18.55;100.00;101496.09;10429460;28;20023;-73
2022/08/26 01:27:57;;;;;;;0.00;0.00;;;;;;;18.49;100.00;101494.19;10429359;28;20024;-74
2022/08/26 01:33:01;;;;;;;0.00;0.00;;;;;;;18.45;100.00;101497.50;10430391;28;20094;-73
2022/08/26 01:38:03;;;;;;;0.10;0.10;;;;;;;18.42;100.00;101496.00;10430994;28;20036;-73
2022/08/26 01:43:07;;;;;;;0.00;0.00;;;;;;;18.39;100.00;101499.09;10424802;28;20480;-73
2022/08/26 01:48:12;;;;;;;0.00;0.00;;;;;;;18.39;100.00;101490.19;10422079;28;20111;-73
2022/08/26 01:53:17;;;;;;;0.00;0.00;;;;;;;18.31;100.00;101493.84;10427599;28;20424;-73
2022/08/26 01:58:25;;;;;;;0.10;0.10;;;;;;;18.20;100.00;101497.88;10433029;28;20036;-73
2022/08/26 02:03:27;;;;;;;0.00;0.00;;;;;;;18.12;100.00;101500.69;10450343;28;20021;-73
2022/08/26 02:08:35;;;;;;;0.00;0.00;;;;;;;18.00;100.00;101484.19;10429811;28;20008;-73
2022/08/26 02:13:47;;;;;;;0.10;0.10;;;;;;;17.87;100.00;101489.47;10429373;28;20017;-73
2022/08/26 02:18:50;;;;;;;0.10;0.10;;;;;;;17.70;100.00;101485.31;10424990;28;20021;-73
2022/08/26 02:23:51;;;;;;;0.10;0.10;;;;;;;17.61;100.00;101488.09;10428921;28;20055;-73
2022/08/26 02:29:03;;;;;;;0.10;0.10;;;;;;;17.61;100.00;101480.03;10434417;28;20089;-73
2022/08/26 02:34:12;;;;;;;0.10;0.10;;;;;;;17.62;100.00;101480.84;10429860;28;20499;-73
2022/08/26 02:39:12;;;;;;;0.10;0.10;;;;;;;17.62;100.00;101481.69;10433266;28;20024;-73
2022/08/26 02:44:13;;;;;;;0.10;0.10;;;;;;;17.62;100.00;101481.69;10432748;28;20036;-73
2022/08/26 02:49:15;;;;;;;0.10;0.10;;;;;;;17.65;100.00;101485.88;10431937;28;20659;-73
2022/08/26 02:54:17;;;;;;;0.10;0.10;;;;;;;17.70;100.00;101486.13;10432516;28;20094;-73
2022/08/26 02:59:17;;;;;;;0.10;0.10;;;;;;;17.72;100.00;101477.88;10433690;28;20045;-73
2022/08/26 03:04:18;;;;;;;0.00;0.00;;;;;;;17.68;100.00;101480.09;10428606;28;20026;-73
2022/08/26 03:09:18;;;;;;;0.10;0.10;;;;;;;17.61;100.00;101466.56;10433602;28;20268;-73
2022/08/26 03:14:19;;;;;;;0.10;0.10;;;;;;;17.52;100.00;101465.00;10422824;28;20021;-73
2022/08/26 03:19:22;;;;;;;0.10;0.10;;;;;;;17.41;100.00;101460.09;10416803;28;20014;-73
2022/08/26 03:24:24;;;;;;;0.10;0.10;;;;;;;17.34;100.00;101462.72;10431404;28;20021;-73
2022/08/26 03:34:43;;;;;;;0.10;0.10;;;;;;;17.34;100.00;101451.97;10434901;28;20033;-73
2022/08/26 03:39:43;;;;;;;0.10;0.10;;;;;;;17.31;100.00;101459.59;10432297;28;20025;-73
2022/08/26 03:44:43;;;;;;;0.07;0.07;;;;;;;17.33;100.00;101449.44;10431235;28;20091;-73
2022/08/26 03:49:44;;;;;;;0.10;0.10;;;;;;;17.33;100.00;101441.34;10429795;28;20022;-73
2022/08/26 03:54:44;;;;;;;0.10;0.10;;;;;;;17.35;100.00;101444.72;10429257;28;20044;-73
2022/08/26 03:59:44;;;;;;;0.10;0.10;;;;;;;17.38;100.00;101444.31;10434284;28;20029;-73
2022/08/26 04:04:45;;;;;;;0.10;0.10;;;;;;;17.40;100.00;101442.28;10435477;28;20598;-73
2022/08/26 04:09:45;;;;;;;0.10;0.10;;;;;;;17.45;100.00;101437.16;10426221;28;20022;-73
2022/08/26 04:14:46;;;;;;;0.10;0.10;;;;;;;17.50;100.00;101437.41;10444631;28;20035;-73
2022/08/26 04:19:46;;;;;;;0.05;0.05;;;;;;;17.53;100.00;101430.81;10438556;28;20075;-72
2022/08/26 04:24:46;;;;;;;0.10;0.10;;;;;;;17.61;100.00;101438.78;10444222;28;20029;-72
2022/08/26 04:29:47;;;;;;;0.10;0.10;;;;;;;17.71;100.00;101438.47;10415574;28;20014;-72
2022/08/26 04:34:47;;;;;;;0.10;0.10;;;;;;;17.81;100.00;101433.66;10425002;28;20013;-72
2022/08/26 04:39:53;;;;;;;0.10;0.10;;;;;;;17.97;100.00;101435.25;10420595;28;20025;-73
2022/08/26 04:44:54;;;;;;;0.10;0.10;;;;;;;18.23;100.00;101435.47;10421119;28;20025;-73
2022/08/26 04:49:55;;;;;;;0.10;0.10;;;;;;;18.56;100.00;101437.59;10422682;22;20108;-76
2022/08/26 04:54:56;;;;;;;0.00;0.00;;;;;;;19.05;100.00;101449.34;10408095;28;20033;-76
2022/08/26 04:59:56;;;;;;;0.00;0.00;;;;;;;19.78;100.00;101455.03;10410360;28;20033;-76
2022/08/26 05:04:57;;;;;;;0.10;0.10;;;;;;;20.56;100.00;101453.44;10411376;28;20036;-76
2022/08/26 05:09:57;;;;;;;0.08;0.08;;;;;;;21.33;100.00;101450.13;10411086;28;20033;-76
2022/08/26 05:14:58;;;;;;;0.00;0.00;;;;;;;22.02;100.00;101454.75;10411036;28;20029;-76
2022/08/26 05:19:59;;;;;;;0.10;0.10;;;;;;;22.52;100.00;101459.38;10410662;28;20026;-77
2022/08/26 05:24:59;;;;;;;0.00;0.00;;;;;;;22.79;100.00;101457.22;10413146;28;20032;-77
2022/08/26 05:30:00;;;;;;;0.00;0.00;;;;;;;22.79;100.00;101457.22;10410872;28;20441;-77
2022/08/26 05:35:01;;;;;;;0.00;0.00;;;;;;;22.72;100.00;101464.59;10410403;28;20080;-77
2022/08/26 05:40:03;;;;;;;0.00;0.00;;;;;;;22.87;100.00;101464.25;10410472;28;20032;-77
2022/08/26 05:45:04;;;;;;;0.00;0.00;;;;;;;22.71;100.00;101463.78;10409519;28;20292;-77
2022/08/26 05:50:05;;;;;;;0.00;0.00;;;;;;;21.91;100.00;101459.00;10391204;28;20111;-77
2022/08/26 05:55:05;;;;;;;0.05;0.05;;;;;;;21.43;100.00;101470.28;10411372;28;20032;-77
2022/08/26 06:00:06;;;;;;;0.10;0.10;;;;;;;21.19;100.00;101474.53;10408830;28;20396;-77
2022/08/26 06:05:07;;;;;;;0.00;0.00;;;;;;;21.00;100.00;101465.44;10407601;28;20508;-77
2022/08/26 06:10:12;;;;;;;0.00;0.00;;;;;;;20.83;100.00;101466.09;10407923;28;20021;-77
2022/08/26 06:15:13;;;;;;;0.00;0.00;;;;;;;20.65;100.00;101462.16;10408566;28;20040;-77
2022/08/26 06:20:14;;;;;;;0.10;0.10;;;;;;;20.58;100.00;101458.66;10390806;28;20030;-76
2022/08/26 06:30:39;;;;;;;0.03;0.03;;;;;;;20.67;100.00;101457.38;10407511;28;20469;-76
2022/08/26 06:35:40;;;;;;;0.00;0.00;;;;;;;20.62;100.00;101451.75;10407906;28;20421;-76
2022/08/26 06:40:47;;;;;;;0.10;0.10;;;;;;;20.57;100.00;101452.41;10408441;28;20396;-76
2022/08/26 06:45:49;;;;;;;0.00;0.00;;;;;;;20.51;100.00;101450.50;10407116;28;20096;-76
2022/08/26 06:50:49;;;;;;;0.00;0.00;;;;;;;20.51;100.00;101455.91;10405951;28;20381;-76
2022/08/26 06:55:49;;;;;;;0.00;0.00;;;;;;;20.56;100.00;101476.97;10407668;28;20029;-76
2022/08/26 07:00:50;;;;;;;0.10;0.10;;;;;;;20.57;100.00;101465.94;10405035;28;20025;-76
2022/08/26 07:05:50;;;;;;;0.00;0.00;;;;;;;20.62;100.00;101469.88;10389334;28;20071;-76
2022/08/26 07:10:50;;;;;;;0.00;0.00;;;;;;;20.65;100.00;101472.16;10405623;28;20465;-76
2022/08/26 07:15:51;;;;;;;0.00;0.00;;;;;;;20.74;100.00;101465.47;10407056;28;20022;-76
2022/08/26 07:20:51;;;;;;;0.00;0.00;;;;;;;20.92;100.00;101464.84;10402459;28;20086;-76
2022/08/26 07:25:52;;;;;;;0.10;0.10;;;;;;;21.17;100.00;101467.66;10409560;28;20024;-76
2022/08/26 07:30:52;;;;;;;0.00;0.00;;;;;;;21.36;100.00;101457.81;10415375;28;20341;-76
2022/08/26 07:35:52;;;;;;;0.00;0.00;;;;;;;21.45;100.00;101468.22;10414861;28;20021;-76
2022/08/26 07:40:53;;;;;;;0.00;0.00;;;;;;;21.58;100.00;101467.31;10415514;28;20017;-76
2022/08/26 07:45:54;;;;;;;0.00;0.00;;;;;;;21.72;100.00;101469.97;10413832;28;20072;-76
2022/08/26 07:50:54;;;;;;;0.10;0.10;;;;;;;22.77;100.00;101483.78;10411768;28;20682;-76
2022/08/26 07:55:54;;;;;;;0.00;0.00;;;;;;;22.49;100.00;101474.22;10416289;28;20025;-76
2022/08/26 08:00:55;;;;;;;0.00;0.00;;;;;;;22.27;100.00;101476.50;10413556;28;20439;-76
2022/08/26 08:05:56;;;;;;;0.10;0.10;;;;;;;22.13;100.00;101469.47;10413690;28;20059;-76
2022/08/26 08:10:56;;;;;;;0.10;0.10;;;;;;;22.07;100.00;101475.78;10413487;28;20534;-76
2022/08/26 08:15:56;;;;;;;0.00;0.00;;;;;;;22.14;100.00;101482.81;10412462;28;20029;-76
2022/08/26 08:20:56;;;;;;;0.03;0.03;;;;;;;22.18;100.00;101485.13;10413720;28;20377;-77
2022/08/26 08:26:03;;;;;;;0.00;0.00;;;;;;;21.98;100.00;101477.91;10412866;28;20033;-76
2022/08/26 08:31:04;;;;;;;0.08;0.08;;;;;;;21.72;100.00;101491.66;10393920;28;20017;-77
2022/08/26 08:36:05;;;;;;;0.10;0.10;;;;;;;21.64;100.00;101477.31;10410237;28;20476;-76
2022/08/26 08:41:05;;;;;;;0.00;0.00;;;;;;;21.64;100.00;101482.72;10410496;28;20018;-77
2022/08/26 08:46:11;;;;;;;0.00;0.00;;;;;;;21.61;100.00;101472.31;10411614;28;20028;-77
2022/08/26 08:51:20;;;;;;;0.10;0.10;;;;;;;21.68;100.00;101478.53;10411697;28;20106;-76
2022/08/26 08:56:38;;;;;;;0.00;0.00;;;;;;;21.74;100.00;101476.81;10411889;28;20100;-77
2022/08/26 09:01:50;;;;;;;0.00;0.00;;;;;;;21.67;100.00;101478.72;10410123;28;20033;-76
2022/08/26 09:06:54;;;;;;;0.00;0.00;;;;;;;21.65;100.00;101451.03;10410982;28;20397;-76
2022/08/26 09:11:57;;;;;;;0.00;0.00;;;;;;;21.68;100.00;101458.72;10410573;28;20056;-75
2022/08/26 09:17:14;;;;;;;0.00;0.00;;;;;;;21.63;100.00;101455.81;10393906;28;20060;-76
2022/08/26 09:22:29;;;;;;;0.10;0.10;;;;;;;21.45;100.00;101453.84;10392580;28;20029;-75
2022/08/26 09:27:36;;;;;;;0.10;0.10;;;;;;;21.20;100.00;101451.81;10411191;28;20108;-75
2022/08/26 09:32:36;;;;;;;0.00;0.00;;;;;;;21.08;100.00;101445.41;10410013;28;20027;-76
2022/08/26 09:37:43;;;;;;;0.00;0.00;;;;;;;21.09;100.00;101463.34;10410793;28;20135;-75
2022/08/26 09:42:44;;;;;;;0.10;0.10;;;;;;;21.21;100.00;101468.91;10409491;28;20079;-76
2022/08/26 09:47:44;;;;;;;0.00;0.00;;;;;;;21.32;100.00;101479.09;10409411;28;20021;-76
2022/08/26 09:52:44;;;;;;;0.00;0.00;;;;;;;21.39;100.00;101492.63;10409413;28;20109;-75
2022/08/26 09:57:50;;;;;;;0.00;0.00;;;;;;;21.45;100.00;101495.31;10409498;28;20108;-76
2022/08/26 10:02:51;;;;;;;0.10;0.10;;;;;;;21.46;100.00;101488.84;10408113;28;20268;-76
2022/08/26 10:07:52;;;;;;;0.00;0.00;;;;;;;21.48;100.00;101504.91;10390784;28;20689;-76
2022/08/26 10:13:08;;;;;;;0.00;0.00;;;;;;;21.37;100.00;101486.59;10409341;28;20029;-76
2022/08/26 10:18:18;;;;;;;0.00;0.00;;;;;;;21.27;100.00;101461.81;10406381;28;20108;-76
2022/08/26 10:23:24;;;;;;;0.00;0.00;;;;;;;21.24;100.00;101449.53;10408400;28;20045;-75
2022/08/26 10:28:38;;;;;;;0.00;0.00;;;;;;;21.20;100.00;101445.56;10408089;28;20507;-75
2022/08/26 10:33:38;;;;;;;0.00;0.00;;;;;;;21.28;100.00;101433.66;10407890;28;20695;-75
2022/08/26 10:38:39;;;;;;;0.00;0.00;;;;;;;21.46;100.00;101429.22;10407426;28;20022;-75
2022/08/26 10:43:57;;;;;;;0.00;0.00;;;;;;;21.76;100.00;101427.78;10407765;28;20017;-75
2022/08/26 10:49:03;;;;;;;0.00;0.00;;;;;;;22.09;100.00;101412.13;10432552;22;20476;-75
2022/08/26 10:54:18;;;;;;;0.00;0.00;;;;;;;22.51;100.00;101417.81;10404130;28;20060;-75
2022/08/26 10:59:33;;;;;;;0.00;0.00;;;;;;;22.95;100.00;101415.94;10404268;28;20029;-75
2022/08/26 11:04:58;;;;;;;0.10;0.10;;;;;;;23.43;100.00;101423.25;10411218;28;20025;-75
2022/08/26 11:10:01;;;;;;;0.10;0.10;;;;;;;23.84;100.00;101429.78;10410865;28;20418;-75
2022/08/26 11:15:04;;;;;;;0.00;0.00;;;;;;;23.95;100.00;101423.56;10411502;28;20025;-75
2022/08/26 11:20:05;;;;;;;0.10;0.10;;;;;;;24.30;100.00;101416.50;10415142;28;20492;-75
2022/08/26 11:25:17;;;;;;;0.10;0.10;;;;;;;24.51;100.00;101412.38;10409570;28;20029;-75
2022/08/26 11:30:21;;;;;;;0.00;0.00;;;;;;;24.88;100.00;101406.66;10410040;28;20492;-75
2022/08/26 11:35:23;;;;;;;0.00;0.00;;;;;;;25.00;100.00;101402.00;10408520;28;20468;-75
2022/08/26 11:40:29;;;;;;;0.00;0.00;;;;;;;25.44;100.00;101408.63;10414494;28;20014;-75
2022/08/26 11:45:37;;;;;;;0.10;0.10;;;;;;;25.99;100.00;101401.69;10413295;28;20025;-75
2022/08/26 11:50:37;;;;;;;0.10;0.10;;;;;;;26.14;100.00;101385.56;10413015;28;20036;-74
2022/08/26 11:55:43;;;;;;;0.00;0.00;;;;;;;26.38;100.00;101379.88;10409132;28;20048;-75
2022/08/26 12:01:00;;;;;;;0.10;0.10;;;;;;;26.57;100.00;101378.56;10408420;28;20026;-75
2022/08/26 12:06:08;;;;;;;0.00;0.00;;;;;;;26.71;100.00;101375.47;10411821;28;20120;-75
2022/08/26 12:11:23;;;;;;;0.10;0.10;;;;;;;27.01;100.00;101356.69;10413042;28;20428;-75
2022/08/26 12:16:26;;;;;;;0.00;0.00;;;;;;;27.28;100.00;101353.19;10405519;28;20365;-75
2022/08/26 12:21:30;;;;;;;0.10;0.10;;;;;;;27.19;100.00;101341.06;10412894;28;20043;-75
2022/08/26 12:26:35;;;;;;;0.10;0.10;;;;;;;27.39;100.00;101354.09;10406650;28;20025;-75
2022/08/26 12:31:39;;;;;;;0.10;0.10;;;;;;;27.68;100.00;101354.66;10406360;28;20480;-75
2022/08/26 12:36:52;;;;;;;0.10;0.10;;;;;;;27.98;100.00;101354.09;10387044;28;20068;-75
2022/08/26 12:42:01;;;;;;;0.10;0.10;;;;;;;28.01;100.00;101342.59;10408714;28;20176;-75
2022/08/26 12:47:21;;;;;;;0.10;0.10;;;;;;;27.76;100.00;101337.75;10410952;28;20094;-75
2022/08/26 12:52:30;;;;;;;0.10;0.10;;;;;;;27.80;100.00;101335.34;10410239;28;20292;-75
2022/08/26 12:57:34;;;;;;;0.10;0.10;;;;;;;27.77;100.00;101325.69;10405569;28;20025;-75
2022/08/26 13:02:38;;;;;;;0.10;0.10;;;;;;;27.83;100.00;101319.22;10399389;28;20105;-75
2022/08/26 13:07:39;;;;;;;0.10;0.10;;;;;;;27.70;100.00;101322.38;10407132;28;20021;-75
2022/08/26 13:12:40;;;;;;;0.10;0.10;;;;;;;27.41;100.00;101308.19;10408907;28;20022;-76
2022/08/26 13:17:41;;;;;;;0.10;0.10;;;;;;;27.33;100.00;101304.00;10406050;28;20079;-75
2022/08/26 13:22:41;;;;;;;0.00;0.00;;;;;;;27.25;100.00;101296.25;10409361;28;20025;-75
2022/08/26 13:27:41;;;;;;;0.10;0.10;;;;;;;27.24;100.00;101295.44;10403075;28;20040;-75
2022/08/26 13:32:42;;;;;;;0.10;0.10;;;;;;;27.22;100.00;101296.78;10400742;28;20028;-75
2022/08/26 13:37:43;;;;;;;0.10;0.10;;;;;;;27.45;100.00;101299.19;10405579;28;20105;-75
2022/08/26 13:42:43;;;;;;;0.00;0.00;;;;;;;27.53;100.00;101300.63;10408754;28;20486;-76
2022/08/26 13:47:43;;;;;;;0.03;0.03;;;;;;;27.78;100.00;101305.47;10406641;28;20025;-75
2022/08/26 13:52:44;;;;;;;0.10;0.10;;;;;;;28.05;100.00;101302.66;10409588;28;20024;-75
2022/08/26 13:57:44;;;;;;;0.10;0.10;;;;;;;28.16;97.85;101295.34;10409179;28;20087;-75
2022/08/26 14:02:45;;;;;;;0.10;0.10;;;;;;;28.47;99.19;101290.84;10403170;28;20490;-76
2022/08/26 14:07:45;;;;;;;0.10;0.10;;;;;;;28.84;92.10;101295.38;10409216;28;20087;-76
2022/08/26 14:12:46;;;;;;;0.00;0.00;;;;;;;29.05;95.24;101293.53;10409015;28;20021;-75
2022/08/26 14:17:47;;;;;;;0.10;0.10;;;;;;;29.01;95.87;101295.97;10408546;28;20767;-75
2022/08/26 14:22:48;;;;;;;;;;;;;;;29.01;94.09;101301.44;10409234;28;20025;-75
2022/08/26 14:27:49;;;;;;;0.10;0.10;;;;;;;28.93;91.00;101303.88;10408432;28;19956;-75
2022/08/26 14:32:53;;;;;;;0.10;0.10;;;;;;;28.81;85.27;101295.91;10400947;28;20021;-76
2022/08/26 14:37:54;;;;;;;0.10;0.10;;;;;;;28.58;86.77;101294.47;10407466;28;20026;-75
2022/08/26 14:42:54;;;;;;;0.10;0.10;;;;;;;28.47;86.61;101287.28;10407985;28;20115;-75
2022/08/26 14:47:55;;;;;;;0.00;0.00;;;;;;;28.49;89.70;101265.94;10408170;28;20472;-75
2022/08/26 14:58:15;;;;;;;0.10;0.10;;;;;;;28.06;93.72;101255.03;10407714;28;20038;-75
2022/08/26 15:03:15;;;;;;;0.10;0.10;;;;;;;27.68;98.25;101250.66;10404776;28;20017;-76
2022/08/26 15:08:15;;;;;;;0.10;0.10;;;;;;;27.46;100.00;101270.75;10407764;28;20018;-76
2022/08/26 15:13:16;;;;;;;0.10;0.10;;;;;;;27.15;100.00;101271.53;10406796;28;20023;-76
2022/08/26 15:18:16;;;;;;;0.00;0.00;;;;;;;26.69;100.00;101271.06;10407250;28;20022;-76
2022/08/26 15:23:16;;;;;;;0.20;0.20;;;;;;;26.38;100.00;101284.31;10407575;28;20029;-75
2022/08/26 15:28:17;;;;;;;0.10;0.10;;;;;;;26.14;100.00;101287.28;10407165;28;20013;-75
2022/08/26 15:33:17;;;;;;;0.00;0.00;;;;;;;25.92;100.00;101294.63;10406088;28;20021;-75
2022/08/26 15:38:17;;;;;;;0.10;0.10;;;;;;;25.63;100.00;101293.84;10406882;28;20079;-76
2022/08/26 15:43:18;;;;;;;0.10;0.10;;;;;;;25.39;100.00;101301.34;10406553;28;20022;-75
2022/08/26 15:48:20;;;;;;;0.10;0.10;;;;;;;25.08;100.00;101301.59;10409142;28;20040;-75
2022/08/26 15:53:22;;;;;;;0.10;0.10;;;;;;;24.77;100.00;101305.63;10414528;28;20483;-76
2022/08/26 15:58:24;;;;;;;0.10;0.10;;;;;;;24.48;100.00;101306.66;10414064;28;20025;-75
2022/08/26 16:03:24;;;;;;;0.10;0.10;;;;;;;24.20;100.00;101316.34;10413649;28;20271;-75
2022/08/26 16:08:25;;;;;;;0.10;0.10;;;;;;;24.04;100.00;101326.09;10413677;28;20449;-75
2022/08/26 16:13:26;;;;;;;0.10;0.10;;;;;;;23.99;100.00;101316.97;10413477;28;20148;-75
2022/08/26 16:18:27;;;;;;;0.00;0.00;;;;;;;23.95;100.00;101303.84;10413494;28;20026;-75
2022/08/26 16:23:27;;;;;;;0.03;0.03;;;;;;;23.89;100.00;101304.78;10412970;28;20017;-75
2022/08/26 16:28:28;;;;;;;0.10;0.10;;;;;;;23.74;100.00;101307.16;10413361;28;20028;-75
2022/08/26 16:33:29;;;;;;;0.00;0.00;;;;;;;23.64;100.00;101315.00;10407499;28;20075;-75
2022/08/26 16:38:29;;;;;;;0.10;0.10;;;;;;;23.63;100.00;101321.53;10412142;28;20472;-75
2022/08/26 16:43:29;;;;;;;0.00;0.00;;;;;;;23.57;100.00;101330.63;10412306;28;20022;-75
2022/08/26 16:48:29;;;;;;;0.10;0.10;;;;;;;23.49;100.00;101337.22;10431091;22;20496;-74
2022/08/26 16:53:30;;;;;;;0.10;0.10;;;;;;;23.42;100.00;101331.88;10411528;28;20033;-74
2022/08/26 16:58:30;;;;;;;0.00;0.00;;;;;;;23.28;100.00;101342.13;10411681;28;20036;-75
2022/08/26 17:03:32;;;;;;;0.00;0.00;;;;;;;23.15;100.00;101363.22;10411152;28;20384;-74
2022/08/26 17:08:32;;;;;;;0.10;0.10;;;;;;;22.91;100.00;101379.34;10410390;28;20009;-75
2022/08/26 17:13:33;;;;;;;0.10;0.10;;;;;;;22.47;100.00;101377.78;10411453;28;20048;-74
2022/08/26 17:18:34;;;;;;;0.10;0.10;;;;;;;21.70;100.00;101389.69;10411797;28;20480;-75
2022/08/26 17:23:35;;;;;;;0.00;0.00;;;;;;;21.14;100.00;101366.00;10410302;28;20029;-74
2022/08/26 17:28:36;;;;;;;0.00;0.00;;;;;;;20.90;100.00;101366.75;10409821;28;20067;-74
2022/08/26 17:33:37;;;;;;;0.10;0.10;;;;;;;20.81;100.00;101358.03;10405841;28;20025;-74
2022/08/26 17:38:39;;;;;;;0.00;0.00;;;;;;;20.90;100.00;101364.03;10410459;28;20546;-74
2022/08/26 17:43:39;;;;;;;0.00;0.00;;;;;;;20.96;100.00;101350.44;10409312;28;20098;-74
2022/08/26 17:48:40;;;;;;;0.00;0.00;;;;;;;20.98;100.00;101336.72;10404977;28;20140;-74
2022/08/26 17:53:40;;;;;;;0.10;0.10;;;;;;;20.93;100.00;101344.66;10410208;28;20464;-74
2022/08/26 17:58:42;;;;;;;0.10;0.10;;;;;;;20.79;100.00;101336.56;10410648;28;20284;-75
2022/08/26 18:03:42;;;;;;;0.10;0.10;;;;;;;20.70;100.00;101328.91;10405765;28;20025;-74
2022/08/26 18:08:43;;;;;;;0.10;0.10;;;;;;;20.62;100.00;101337.25;10407833;28;20018;-74
2022/08/26 18:13:45;;;;;;;0.08;0.08;;;;;;;20.62;100.00;101339.97;10408292;28;20387;-74
2022/08/26 18:18:47;;;;;;;0.10;0.10;;;;;;;20.62;100.00;101348.09;10409193;28;20021;-74
2022/08/26 18:23:48;;;;;;;0.10;0.10;;;;;;;20.58;100.00;101347.69;10408379;28;20048;-74
2022/08/26 18:28:48;;;;;;;0.10;0.10;;;;;;;20.56;100.00;101336.22;10409233;28;20031;-74
2022/08/26 18:33:49;;;;;;;0.10;0.10;;;;;;;20.52;100.00;101327.72;10402546;28;20088;-74
2022/08/26 18:38:50;;;;;;;0.10;0.10;;;;;;;20.53;100.00;101336.66;10408555;28;20018;-74
2022/08/26 18:43:52;;;;;;;0.00;0.00;;;;;;;20.51;100.00;101352.28;10406757;28;20021;-75
2022/08/26 18:48:54;;;;;;;0.00;0.00;;;;;;;20.37;100.00;101370.41;10408178;28;20052;-74
2022/08/26 18:53:55;;;;;;;0.00;0.00;;;;;;;20.25;100.00;101374.78;10407789;28;20025;-74
2022/08/26 18:58:57;;;;;;;0.10;0.10;;;;;;;20.09;100.00;101387.66;10408016;28;20022;-74
2022/08/26 19:04:00;;;;;;;0.10;0.10;;;;;;;20.00;100.00;101380.00;10401085;28;20550;-74
2022/08/26 19:09:03;;;;;;;0.10;0.10;;;;;;;19.94;100.00;101375.41;10407916;28;20029;-74
2022/08/26 19:14:05;;;;;;;;;;;;;;;19.92;100.00;101381.00;10406242;28;20036;-74
2022/08/26 19:19:06;;;;;;;0.10;0.10;;;;;;;19.97;100.00;101394.75;10406213;28;19913;-72
2022/08/26 19:24:13;;;;;;;0.10;0.10;;;;;;;20.06;100.00;101398.09;10411158;28;20461;-74
2022/08/26 19:29:15;;;;;;;0.00;0.00;;;;;;;20.16;100.00;101401.22;10414048;28;20043;-73
2022/08/26 19:34:16;;;;;;;0.10;0.10;;;;;;;20.23;100.00;101410.16;10411005;28;20013;-74
2022/08/26 19:39:17;;;;;;;0.00;0.00;;;;;;;20.34;100.00;101406.81;10413730;28;20018;-74
2022/08/26 19:49:38;;;;;;;0.00;0.00;;;;;;;20.43;100.00;101407.44;10415208;28;20065;-74
2022/08/26 19:54:39;;;;;;;0.10;0.10;;;;;;;20.44;100.00;101417.19;10414208;28;20049;-74
2022/08/26 19:59:40;;;;;;;0.10;0.10;;;;;;;20.42;100.00;101413.03;10412144;28;20338;-74
2022/08/26 20:04:41;;;;;;;0.10;0.10;;;;;;;20.42;100.00;101413.91;10405654;28;20048;-74
2022/08/26 20:09:41;;;;;;;0.00;0.00;;;;;;;20.40;100.00;101404.31;10414374;28;20489;-74
2022/08/26 20:14:42;;;;;;;0.00;0.00;;;;;;;20.31;100.00;101399.13;10412583;28;20028;-74
2022/08/26 20:25:01;;;;;;;0.00;0.00;;;;;;;20.11;100.00;101404.53;10413669;28;20029;-74
2022/08/26 20:30:03;;;;;;;0.00;0.00;;;;;;;20.06;100.00;101396.22;10411943;28;20419;-73
2022/08/26 20:35:07;;;;;;;0.10;0.10;;;;;;;20.01;100.00;101393.31;10408380;28;20101;-74
2022/08/26 20:40:10;;;;;;;0.10;0.10;;;;;;;19.95;100.00;101398.69;10412942;28;20029;-74
2022/08/26 20:45:10;;;;;;;0.10;0.10;;;;;;;19.87;100.00;101397.06;10412634;28;20056;-73
2022/08/26 20:50:10;;;;;;;0.10;0.10;;;;;;;19.78;100.00;101396.41;10412817;28;20083;-74
2022/08/26 20:55:11;;;;;;;0.00;0.00;;;;;;;19.68;100.00;101398.69;10412699;28;20022;-74
2022/08/26 21:00:14;;;;;;;0.00;0.00;;;;;;;19.59;100.00;101411.50;10408946;28;20060;-73
2022/08/26 21:05:15;;;;;;;0.10;0.10;;;;;;;19.54;100.00;101410.47;10410648;28;20476;-74
2022/08/26 21:10:15;;;;;;;0.10;0.10;;;;;;;19.49;100.00;101407.53;10411774;28;20021;-74
2022/08/26 21:15:16;;;;;;;0.10;0.10;;;;;;;19.39;100.00;101413.31;10411547;28;20063;-75
2022/08/26 21:20:16;;;;;;;0.00;0.00;;;;;;;19.33;100.00;101420.38;10379432;28;20763;-75
2022/08/26 21:25:17;;;;;;;0.00;0.00;;;;;;;19.29;100.00;101424.53;10403870;28;20108;-75
2022/08/26 21:30:17;;;;;;;0.00;0.00;;;;;;;19.25;100.00;101417.03;10406509;28;20018;-72
2022/08/26 21:35:18;;;;;;;0.00;0.00;;;;;;;19.23;100.00;101426.16;10401770;28;20041;-72
2022/08/26 21:40:18;;;;;;;0.00;0.00;;;;;;;19.22;100.00;101426.34;10402258;28;20014;-75
2022/08/26 21:45:18;;;;;;;0.10;0.10;;;;;;;19.19;100.00;101426.75;10405484;28;20264;-74
2022/08/26 21:50:19;;;;;;;0.10;0.10;;;;;;;19.17;100.00;101436.94;10400845;28;21353;-74
2022/08/26 21:55:19;;;;;;;0.10;0.10;;;;;;;19.19;100.00;101426.75;10398907;28;20071;-73
2022/08/26 22:00:19;;;;;;;0.10;0.10;;;;;;;19.21;100.00;101435.50;10407421;28;20022;-74
2022/08/26 22:05:20;;;;;;;0.00;0.00;;;;;;;19.24;100.00;101429.69;10407998;28;20033;-74
2022/08/26 22:10:20;;;;;;;0.00;0.00;;;;;;;19.25;100.00;101439.44;10409596;28;20036;-74
2022/08/26 22:15:24;;;;;;;0.03;0.03;;;;;;;19.21;100.00;101436.31;10409693;28;20021;-75
2022/08/26 22:20:24;;;;;;;0.10;0.10;;;;;;;19.19;100.00;101437.56;10407830;28;20105;-74
2022/08/26 22:25:26;;;;;;;0.10;0.10;;;;;;;19.18;100.00;101441.31;10408587;28;20022;-74
2022/08/26 22:30:26;;;;;;;0.10;0.10;;;;;;;19.16;100.00;101443.38;10406570;28;20020;-74
2022/08/26 22:35:26;;;;;;;0.10;0.10;;;;;;;19.16;100.00;101440.66;10407633;28;20033;-74
2022/08/26 22:40:27;;;;;;;0.10;0.10;;;;;;;19.15;100.00;101430.91;10408482;28;20329;-75
2022/08/26 22:45:31;;;;;;;0.10;0.10;;;;;;;19.14;100.00;101429.22;10408154;28;20021;-75
2022/08/26 22:50:31;;;;;;;0.10;0.10;;;;;;;19.12;100.00;101425.91;10408920;28;20390;-75
2022/08/26 22:55:31;;;;;;;0.10;0.10;;;;;;;19.10;100.00;101426.09;10408176;28;20034;-75
2022/08/26 23:00:32;;;;;;;0.00;0.00;;;;;;;19.09;100.00;101427.13;10412493;28;20417;-75
2022/08/26 23:05:33;;;;;;;0.10;0.10;;;;;;;19.10;100.00;101419.88;10416532;28;20034;-74
2022/08/26 23:10:35;;;;;;;0.00;0.00;;;;;;;19.09;100.00;101423.63;10416718;28;20017;-74
2022/08/26 23:15:36;;;;;;;0.10;0.10;;;;;;;19.11;100.00;101421.53;10415664;28;20465;-72
2022/08/26 23:20:37;;;;;;;0.00;0.00;;;;;;;19.12;100.00;101415.94;10416001;28;20022;-73